sensor_id;sensor_type;location;lat;lon;timestamp;pressure;altitude;pressure_sealevel;temperature;humidity
21760;BME280;11041;50.854;20.580;2023-12-07T00:02:02;98785.44;;;-2.07;100.00
21760;BME280;11041;50.854;20.580;2023-12-07T00:04:29;98779.81;;;-2.06;100.00
21760;BME280;11041;50.854;20.580;2023-12-07T00:06:55;98770.69;;;-2.05;100.00
21760;BME280;11041;50.854;20.580;2023-12-07T00:09:22;98775.63;;;-2.02;100.00
21760;BME280;11041;50.854;20.580;2023-12-07T00:11:50;98782.03;;;-2.03;100.00
21760;BME280;11041;50.854;20.580;2023-12-07T00:14:19;98776.91;;;-2.04;100.00
21760;BME280;11041;50.854;20.580;2023-12-07T00:16:45;98778.75;;;-2.05;100.00
21760;BME280;11041;50.854;20.580;2023-12-07T00:19:12;98779.81;;;-2.06;100.00
21760;BME280;11041;50.854;20.580;2023-12-07T00:21:43;98777.34;;;-2.07;100.00
21760;BME280;11041;50.854;20.580;2023-12-07T00:24:09;98777.13;;;-2.06;100.00
21760;BME280;11041;50.854;20.580;2023-12-07T00:26:37;98780.16;;;-2.02;100.00
21760;BME280;11041;50.854;20.580;2023-12-07T00:29:07;98777.25;;;-2.01;100.00
21760;BME280;11041;50.854;20.580;2023-12-07T00:31:35;98783.44;;;-2.00;100.00
21760;BME280;11041;50.854;20.580;2023-12-07T00:34:02;98786.72;;;-1.98;100.00
21760;BME280;11041;50.854;20.580;2023-12-07T00:36:29;98789.22;;;-1.97;100.00
21760;BME280;11041;50.854;20.580;2023-12-07T00:38:55;98797.88;;;-1.95;100.00
21760;BME280;11041;50.854;20.580;2023-12-07T00:41:22;98790.84;;;-1.96;100.00
21760;BME280;11041;50.854;20.580;2023-12-07T00:43:48;98796.00;;;-1.94;100.00
21760;BME280;11041;50.854;20.580;2023-12-07T00:46:15;98805.69;;;-1.93;100.00
21760;BME280;11041;50.854;20.580;2023-12-07T00:48:41;98801.97;;;-1.92;100.00
21760;BME280;11041;50.854;20.580;2023-12-07T00:51:08;98801.13;;;-1.93;100.00
21760;BME280;11041;50.854;20.580;2023-12-07T00:53:35;98799.28;;;-1.92;100.00
21760;BME280;11041;50.854;20.580;2023-12-07T00:56:03;98796.34;;;-1.90;100.00
21760;BME280;11041;50.854;20.580;2023-12-07T00:58:30;98794.50;;;-1.90;100.00
21760;BME280;11041;50.854;20.580;2023-12-07T01:00:56;98794.50;;;-1.90;100.00
21760;BME280;11041;50.854;20.580;2023-12-07T01:03:23;98795.31;;;-1.89;100.00
21760;BME280;11041;50.854;20.580;2023-12-07T01:05:50;98794.00;;;-1.87;100.00
21760;BME280;11041;50.854;20.580;2023-12-07T01:08:17;98795.03;;;-1.88;100.00
21760;BME280;11041;50.854;20.580;2023-12-07T01:10:43;98802.31;;;-1.88;100.00
21760;BME280;11041;50.854;20.580;2023-12-07T01:13:14;98788.03;;;-1.89;100.00
21760;BME280;11041;50.854;20.580;2023-12-07T01:15:40;98796.44;;;-1.85;100.00
21760;BME280;11041;50.854;20.580;2023-12-07T01:18:07;98798.09;;;-1.84;100.00
21760;BME280;11041;50.854;20.580;2023-12-07T01:20:34;98796.44;;;-1.85;100.00
21760;BME280;11041;50.854;20.580;2023-12-07T01:23:01;98785.47;;;-1.84;100.00
21760;BME280;11041;50.854;20.580;2023-12-07T01:25:28;98794.34;;;-1.83;100.00
21760;BME280;11041;50.854;20.580;2023-12-07T01:27:59;98801.72;;;-1.79;100.00
21760;BME280;11041;50.854;20.580;2023-12-07T01:30:28;98799.63;;;-1.77;100.00
21760;BME280;11041;50.854;20.580;2023-12-07T01:32:58;98793.91;;;-1.80;100.00
21760;BME280;11041;50.854;20.580;2023-12-07T01:35:27;98797.41;;;-1.80;100.00
21760;BME280;11041;50.854;20.580;2023-12-07T01:37:58;98799.28;;;-1.80;100.00
21760;BME280;11041;50.854;20.580;2023-12-07T01:40:27;98791.44;;;-1.82;100.00
21760;BME280;11041;50.854;20.580;2023-12-07T01:42:59;98790.63;;;-1.82;100.00
21760;BME280;11041;50.854;20.580;2023-12-07T01:45:28;98786.75;;;-1.86;100.00
21760;BME280;11041;50.854;20.580;2023-12-07T01:48:00;98785.69;;;-1.85;100.00
21760;BME280;11041;50.854;20.580;2023-12-07T01:50:28;98792.47;;;-1.83;100.00
21760;BME280;11041;50.854;20.580;2023-12-07T01:53:03;98787.66;;;-1.81;100.00
21760;BME280;11041;50.854;20.580;2023-12-07T01:55:38;98785.81;;;-1.80;100.00
21760;BME280;11041;50.854;20.580;2023-12-07T01:58:06;98788.03;;;-1.77;100.00
21760;BME280;11041;50.854;20.580;2023-12-07T02:00:40;98779.72;;;-1.76;100.00
21760;BME280;11041;50.854;20.580;2023-12-07T02:03:15;98776.78;;;-1.74;100.00
21760;BME280;11041;50.854;20.580;2023-12-07T02:05:49;98778.78;;;-1.69;100.00
21760;BME280;11041;50.854;20.580;2023-12-07T02:08:21;98782.28;;;-1.69;100.00
21760;BME280;11041;50.854;20.580;2023-12-07T02:10:49;98786.63;;;-1.68;100.00
21760;BME280;11041;50.854;20.580;2023-12-07T02:13:21;98783.69;;;-1.66;100.00
21760;BME280;11041;50.854;20.580;2023-12-07T02:15:54;98783.47;;;-1.65;100.00
21760;BME280;11041;50.854;20.580;2023-12-07T02:18:52;98782.75;;;-1.60;100.00
21760;BME280;11041;50.854;20.580;2023-12-07T02:21:34;98785.47;;;-1.60;100.00
21760;BME280;11041;50.854;20.580;2023-12-07T02:24:13;98787.34;;;-1.61;100.00
21760;BME280;11041;50.854;20.580;2023-12-07T02:26:51;98788.16;;;-1.60;100.00
21760;BME280;11041;50.854;20.580;2023-12-07T02:29:18;98791.06;;;-1.62;100.00
21760;BME280;11041;50.854;20.580;2023-12-07T02:31:47;98794.56;;;-1.61;100.00
21760;BME280;11041;50.854;20.580;2023-12-07T02:34:15;98790.84;;;-1.60;100.00
21760;BME280;11041;50.854;20.580;2023-12-07T02:36:51;98787.94;;;-1.59;100.00
21760;BME280;11041;50.854;20.580;2023-12-07T02:39:24;98794.13;;;-1.58;100.00
21760;BME280;11041;50.854;20.580;2023-12-07T02:41:52;98798.94;;;-1.60;100.00
21760;BME280;11041;50.854;20.580;2023-12-07T02:44:22;98798.94;;;-1.60;100.00
21760;BME280;11041;50.854;20.580;2023-12-07T02:46:57;98801.16;;;-1.57;100.00
21760;BME280;11041;50.854;20.580;2023-12-07T02:49:25;98792.94;;;-1.62;100.00
21760;BME280;11041;50.854;20.580;2023-12-07T02:51:54;98803.16;;;-1.64;100.00
21760;BME280;11041;50.854;20.580;2023-12-07T02:54:27;98798.56;;;-1.64;100.00
21760;BME280;11041;50.854;20.580;2023-12-07T02:56:53;98804.31;;;-1.60;100.00
21760;BME280;11041;50.854;20.580;2023-12-07T02:59:21;98805.13;;;-1.60;100.00
21760;BME280;11041;50.854;20.580;2023-12-07T03:01:51;98806.31;;;-1.56;100.00
21760;BME280;11041;50.854;20.580;2023-12-07T03:04:18;98809.00;;;-1.56;100.00
21760;BME280;11041;50.854;20.580;2023-12-07T03:06:45;98811.44;;;-1.54;100.00
21760;BME280;11041;50.854;20.580;2023-12-07T03:09:16;98811.00;;;-1.51;100.00
21760;BME280;11041;50.854;20.580;2023-12-07T03:11:42;98809.47;;;-1.47;100.00
21760;BME280;11041;50.854;20.580;2023-12-07T03:14:15;98806.06;;;-1.42;100.00
21760;BME280;11041;50.854;20.580;2023-12-07T03:16:44;98805.84;;;-1.41;100.00
21760;BME280;11041;50.854;20.580;2023-12-07T03:19:12;98805.59;;;-1.39;100.00
21760;BME280;11041;50.854;20.580;2023-12-07T03:21:40;98813.44;;;-1.38;100.00
21760;BME280;11041;50.854;20.580;2023-12-07T03:24:08;98808.84;;;-1.37;100.00
21760;BME280;11041;50.854;20.580;2023-12-07T03:26:39;98812.41;;;-1.37;100.00
21760;BME280;11041;50.854;20.580;2023-12-07T03:29:09;98804.91;;;-1.35;100.00
21760;BME280;11041;50.854;20.580;2023-12-07T03:31:37;98812.72;;;-1.33;100.00
21760;BME280;11041;50.854;20.580;2023-12-07T03:34:05;98809.00;;;-1.32;100.00
21760;BME280;11041;50.854;20.580;2023-12-07T03:36:35;98813.31;;;-1.31;100.00
21760;BME280;11041;50.854;20.580;2023-12-07T03:39:05;98812.25;;;-1.30;100.00
21760;BME280;11041;50.854;20.580;2023-12-07T03:41:36;98819.88;;;-1.27;100.00
21760;BME280;11041;50.854;20.580;2023-12-07T03:44:05;98813.44;;;-1.26;100.00
21760;BME280;11041;50.854;20.580;2023-12-07T03:46:34;98809.91;;;-1.26;100.00
21760;BME280;11041;50.854;20.580;2023-12-07T03:49:03;98812.38;;;-1.25;100.00
21760;BME280;11041;50.854;20.580;2023-12-07T03:51:30;98810.25;;;-1.23;100.00
21760;BME280;11041;50.854;20.580;2023-12-07T03:53:59;98826.19;;;-1.21;100.00
21760;BME280;11041;50.854;20.580;2023-12-07T03:56:29;98815.19;;;-1.20;100.00
21760;BME280;11041;50.854;20.580;2023-12-07T03:58:59;98821.63;;;-1.21;100.00
21760;BME280;11041;50.854;20.580;2023-12-07T04:01:29;98808.94;;;-1.20;100.00
21760;BME280;11041;50.854;20.580;2023-12-07T04:04:02;98807.91;;;-1.19;100.00
21760;BME280;11041;50.854;20.580;2023-12-07T04:06:37;98814.34;;;-1.20;100.00
21760;BME280;11041;50.854;20.580;2023-12-07T04:09:06;98815.63;;;-1.23;100.00
21760;BME280;11041;50.854;20.580;2023-12-07T04:11:34;98818.34;;;-1.23;100.00
21760;BME280;11041;50.854;20.580;2023-12-07T04:14:03;98826.44;;;-1.23;100.00
21760;BME280;11041;50.854;20.580;2023-12-07T04:16:29;98827.97;;;-1.27;100.00
21760;BME280;11041;50.854;20.580;2023-12-07T04:18:58;98824.44;;;-1.27;100.00
21760;BME280;11041;50.854;20.580;2023-12-07T04:21:25;98832.28;;;-1.26;100.00
21760;BME280;11041;50.854;20.580;2023-12-07T04:23:53;98832.28;;;-1.26;100.00
21760;BME280;11041;50.854;20.580;2023-12-07T04:26:19;98834.78;;;-1.24;100.00
21760;BME280;11041;50.854;20.580;2023-12-07T04:28:47;98834.50;;;-1.23;100.00
21760;BME280;11041;50.854;20.580;2023-12-07T04:31:18;98838.06;;;-1.22;100.00
21760;BME280;11041;50.854;20.580;2023-12-07T04:33:44;98835.69;;;-1.19;100.00
21760;BME280;11041;50.854;20.580;2023-12-07T04:36:11;98836.50;;;-1.18;100.00
21760;BME280;11041;50.854;20.580;2023-12-07T04:38:38;98839.47;;;-1.20;100.00
21760;BME280;11041;50.854;20.580;2023-12-07T04:41:10;98834.88;;;-1.19;100.00
21760;BME280;11041;50.854;20.580;2023-12-07T04:43:37;98832.19;;;-1.19;100.00
21760;BME280;11041;50.854;20.580;2023-12-07T04:46:07;98835.91;;;-1.20;100.00
21760;BME280;11041;50.854;20.580;2023-12-07T04:48:42;98836.75;;;-1.20;100.00
21760;BME280;11041;50.854;20.580;2023-12-07T04:51:11;98849.75;;;-1.17;100.00
21760;BME280;11041;50.854;20.580;2023-12-07T04:53:38;98841.66;;;-1.17;100.00
21760;BME280;11041;50.854;20.580;2023-12-07T04:56:08;98842.25;;;-1.15;100.00
21760;BME280;11041;50.854;20.580;2023-12-07T04:58:38;98849.88;;;-1.12;100.00
21760;BME280;11041;50.854;20.580;2023-12-07T05:01:08;98847.75;;;-1.10;100.00
21760;BME280;11041;50.854;20.580;2023-12-07T05:03:37;98852.66;;;-1.07;100.00
21760;BME280;11041;50.854;20.580;2023-12-07T05:06:04;98848.44;;;-1.02;100.00
21760;BME280;11041;50.854;20.580;2023-12-07T05:08:33;98854.16;;;-0.99;100.00
21760;BME280;11041;50.854;20.580;2023-12-07T05:11:00;98848.56;;;-0.97;100.00
21760;BME280;11041;50.854;20.580;2023-12-07T05:13:35;98852.88;;;-0.96;100.00
21760;BME280;11041;50.854;20.580;2023-12-07T05:16:05;98856.75;;;-0.92;100.00
21760;BME280;11041;50.854;20.580;2023-12-07T05:18:32;98854.06;;;-0.92;100.00
21760;BME280;11041;50.854;20.580;2023-12-07T05:21:00;98850.88;;;-0.89;100.00
21760;BME280;11041;50.854;20.580;2023-12-07T05:23:29;98854.41;;;-0.89;100.00
21760;BME280;11041;50.854;20.580;2023-12-07T05:26:02;98852.31;;;-0.87;100.00
21760;BME280;11041;50.854;20.580;2023-12-07T05:28:29;98852.53;;;-0.88;100.00
21760;BME280;11041;50.854;20.580;2023-12-07T05:30:58;98844.44;;;-0.88;100.00
21760;BME280;11041;50.854;20.580;2023-12-07T05:33:27;98850.63;;;-0.88;100.00
21760;BME280;11041;50.854;20.580;2023-12-07T05:35:54;98850.41;;;-0.86;100.00
21760;BME280;11041;50.854;20.580;2023-12-07T05:38:22;98853.09;;;-0.86;100.00
21760;BME280;11041;50.854;20.580;2023-12-07T05:40:48;98858.50;;;-0.86;100.00
21760;BME280;11041;50.854;20.580;2023-12-07T05:43:16;98859.09;;;-0.84;100.00
21760;BME280;11041;50.854;20.580;2023-12-07T05:45:43;98866.13;;;-0.83;100.00
21760;BME280;11041;50.854;20.580;2023-12-07T05:48:10;98873.13;;;-0.82;100.00
21760;BME280;11041;50.854;20.580;2023-12-07T05:50:39;98868.31;;;-0.80;100.00
21760;BME280;11041;50.854;20.580;2023-12-07T05:53:07;98865.41;;;-0.78;100.00
21760;BME280;11041;50.854;20.580;2023-12-07T05:55:35;98881.38;;;-0.77;100.00
21760;BME280;11041;50.854;20.580;2023-12-07T05:58:03;98871.13;;;-0.75;100.00
21760;BME280;11041;50.854;20.580;2023-12-07T06:00:30;98872.78;;;-0.74;100.00
21760;BME280;11041;50.854;20.580;2023-12-07T06:02:57;98879.00;;;-0.73;100.00
21760;BME280;11041;50.854;20.580;2023-12-07T06:05:25;98874.19;;;-0.71;100.00
21760;BME280;11041;50.854;20.580;2023-12-07T06:07:52;98883.09;;;-0.71;100.00
21760;BME280;11041;50.854;20.580;2023-12-07T06:10:20;98886.88;;;-0.72;100.00
21760;BME280;11041;50.854;20.580;2023-12-07T06:12:46;98884.38;;;-0.73;100.00
21760;BME280;11041;50.854;20.580;2023-12-07T06:15:15;98891.41;;;-0.72;100.00
21760;BME280;11041;50.854;20.580;2023-12-07T06:17:42;98892.25;;;-0.72;100.00
21760;BME280;11041;50.854;20.580;2023-12-07T06:20:14;98898.69;;;-0.73;100.00
21760;BME280;11041;50.854;20.580;2023-12-07T06:22:45;98902.22;;;-0.72;100.00
21760;BME280;11041;50.854;20.580;2023-12-07T06:25:14;98906.47;;;-0.76;100.00
21760;BME280;11041;50.854;20.580;2023-12-07T06:27:44;98900.97;;;-0.81;100.00
21760;BME280;11041;50.854;20.580;2023-12-07T06:30:13;98910.34;;;-0.84;100.00
21760;BME280;11041;50.854;20.580;2023-12-07T06:32:42;98913.06;;;-0.84;100.00
21760;BME280;11041;50.854;20.580;2023-12-07T06:35:11;98910.81;;;-0.87;100.00
21760;BME280;11041;50.854;20.580;2023-12-07T06:37:45;98918.91;;;-0.87;100.00
21760;BME280;11041;50.854;20.580;2023-12-07T06:40:15;98917.59;;;-0.84;100.00
21760;BME280;11041;50.854;20.580;2023-12-07T06:42:44;98919.84;;;-0.81;100.00
21760;BME280;11041;50.854;20.580;2023-12-07T06:45:10;98922.88;;;-0.78;100.00
21760;BME280;11041;50.854;20.580;2023-12-07T06:47:41;98918.06;;;-0.76;100.00
21760;BME280;11041;50.854;20.580;2023-12-07T06:50:12;98918.66;;;-0.74;100.00
21760;BME280;11041;50.854;20.580;2023-12-07T06:52:45;98910.34;;;-0.84;100.00
21760;BME280;11041;50.854;20.580;2023-12-07T06:55:14;98918.66;;;-0.86;100.00
21760;BME280;11041;50.854;20.580;2023-12-07T06:57:43;98919.25;;;-0.83;100.00
21760;BME280;11041;50.854;20.580;2023-12-07T07:00:10;98914.44;;;-0.81;100.00
21760;BME280;11041;50.854;20.580;2023-12-07T07:02:41;98919.16;;;-0.89;100.00
21760;BME280;11041;50.854;20.580;2023-12-07T07:05:12;98923.16;;;-0.91;100.00
21760;BME280;11041;50.854;20.580;2023-12-07T07:07:45;98915.59;;;-0.89;100.00
21760;BME280;11041;50.854;20.580;2023-12-07T07:10:12;98931.47;;;-0.93;100.00
21760;BME280;11041;50.854;20.580;2023-12-07T07:12:41;98921.38;;;-0.97;100.00
21760;BME280;11041;50.854;20.580;2023-12-07T07:15:13;98935.78;;;-0.92;100.00
21760;BME280;11041;50.854;20.580;2023-12-07T07:17:40;98935.34;;;-0.89;100.00
21760;BME280;11041;50.854;20.580;2023-12-07T07:20:09;98934.97;;;-0.92;100.00
21760;BME280;11041;50.854;20.580;2023-12-07T07:22:38;98940.03;;;-0.96;100.00
21760;BME280;11041;50.854;20.580;2023-12-07T07:25:08;98947.88;;;-0.94;100.00
21760;BME280;11041;50.854;20.580;2023-12-07T07:27:37;98933.94;;;-0.91;100.00
21760;BME280;11041;50.854;20.580;2023-12-07T07:30:08;98940.59;;;-0.82;100.00
21760;BME280;11041;50.854;20.580;2023-12-07T07:32:41;98942.34;;;-0.76;100.00
21760;BME280;11041;50.854;20.580;2023-12-07T07:35:10;98943.03;;;-0.69;100.00
21760;BME280;11041;50.854;20.580;2023-12-07T07:37:39;98948.56;;;-0.63;100.00
21760;BME280;11041;50.854;20.580;2023-12-07T07:40:10;98947.03;;;-0.59;100.00
21760;BME280;11041;50.854;20.580;2023-12-07T07:42:40;98947.94;;;-0.54;100.00
21760;BME280;11041;50.854;20.580;2023-12-07T07:45:07;98941.25;;;-0.51;100.00
21760;BME280;11041;50.854;20.580;2023-12-07T07:47:34;98953.44;;;-0.49;100.00
21760;BME280;11041;50.854;20.580;2023-12-07T07:50:05;98955.69;;;-0.46;100.00
21760;BME280;11041;50.854;20.580;2023-12-07T07:52:34;98953.53;;;-0.44;100.00
21760;BME280;11041;50.854;20.580;2023-12-07T07:55:05;98957.66;;;-0.41;100.00
21760;BME280;11041;50.854;20.580;2023-12-07T07:57:32;98962.59;;;-0.38;100.00
21760;BME280;11041;50.854;20.580;2023-12-07T07:59:59;98964.81;;;-0.35;100.00
21760;BME280;11041;50.854;20.580;2023-12-07T08:02:27;98967.03;;;-0.32;100.00
21760;BME280;11041;50.854;20.580;2023-12-07T08:04:56;98972.53;;;-0.27;100.00
21760;BME280;11041;50.854;20.580;2023-12-07T08:07:23;98967.69;;;-0.25;100.00
21760;BME280;11041;50.854;20.580;2023-12-07T08:09:50;98971.81;;;-0.22;100.00
21760;BME280;11041;50.854;20.580;2023-12-07T08:12:21;98975.09;;;-0.20;100.00
21760;BME280;11041;50.854;20.580;2023-12-07T08:14:55;98972.75;;;-0.16;100.00
21760;BME280;11041;50.854;20.580;2023-12-07T08:17:24;98979.53;;;-0.14;100.00
21760;BME280;11041;50.854;20.580;2023-12-07T08:19:55;98972.84;;;-0.11;100.00
21760;BME280;11041;50.854;20.580;2023-12-07T08:22:22;98975.28;;;-0.10;100.00
21760;BME280;11041;50.854;20.580;2023-12-07T08:24:51;98982.13;;;-0.07;100.00
21760;BME280;11041;50.854;20.580;2023-12-07T08:27:22;98975.16;;;-0.03;100.00
21760;BME280;11041;50.854;20.580;2023-12-07T08:29:49;98976.81;;;-0.02;100.00
21760;BME280;11041;50.854;20.580;2023-12-07T08:32:16;98978.44;;;-0.01;100.00
21760;BME280;11041;50.854;20.580;2023-12-07T08:34:49;98977.13;;;0.02;100.00
21760;BME280;11041;50.854;20.580;2023-12-07T08:37:18;98986.91;;;0.03;100.00
21760;BME280;11041;50.854;20.580;2023-12-07T08:39:45;98989.34;;;0.04;100.00
21760;BME280;11041;50.854;20.580;2023-12-07T08:42:12;98974.53;;;0.07;100.00
21760;BME280;11041;50.854;20.580;2023-12-07T08:44:43;98984.63;;;0.11;100.00
21760;BME280;11041;50.854;20.580;2023-12-07T08:47:10;98986.00;;;0.14;100.00
21760;BME280;11041;50.854;20.580;2023-12-07T08:49:37;98987.09;;;0.13;100.00
21760;BME280;11041;50.854;20.580;2023-12-07T08:52:08;98989.53;;;0.14;100.00
21760;BME280;11041;50.854;20.580;2023-12-07T08:54:39;98984.72;;;0.16;100.00
21760;BME280;11041;50.854;20.580;2023-12-07T08:57:07;98988.00;;;0.18;100.00
21760;BME280;11041;50.854;20.580;2023-12-07T08:59:36;98993.16;;;0.20;100.00
21760;BME280;11041;50.854;20.580;2023-12-07T09:02:07;98992.91;;;0.21;100.00
21760;BME280;11041;50.854;20.580;2023-12-07T09:04:35;98994.06;;;0.26;100.00
21760;BME280;11041;50.854;20.580;2023-12-07T09:07:07;98989.56;;;0.31;100.00
21760;BME280;11041;50.854;20.580;2023-12-07T09:09:37;98987.22;;;0.35;100.00
21760;BME280;11041;50.854;20.580;2023-12-07T09:12:06;98994.03;;;0.37;100.00
21760;BME280;11041;50.854;20.580;2023-12-07T09:14:39;98991.41;;;0.42;100.00
21760;BME280;11041;50.854;20.580;2023-12-07T09:17:10;98993.38;;;0.47;100.00
21760;BME280;11041;50.854;20.580;2023-12-07T09:19:39;98996.16;;;0.52;100.00
21760;BME280;11041;50.854;20.580;2023-12-07T09:22:06;98988.72;;;0.59;100.00
21760;BME280;11041;50.854;20.580;2023-12-07T09:24:34;98982.34;;;0.66;100.00
21760;BME280;11041;50.854;20.580;2023-12-07T09:27:03;98986.44;;;0.68;100.00
21760;BME280;11041;50.854;20.580;2023-12-07T09:29:34;98990.31;;;0.72;100.00
21760;BME280;11041;50.854;20.580;2023-12-07T09:32:07;98990.38;;;0.77;100.00
21760;BME280;11041;50.854;20.580;2023-12-07T09:34:39;98989.22;;;0.73;100.00
21760;BME280;11041;50.854;20.580;2023-12-07T09:37:15;98995.22;;;0.75;100.00
21760;BME280;11041;50.854;20.580;2023-12-07T09:39:41;98990.84;;;0.74;100.00
21760;BME280;11041;50.854;20.580;2023-12-07T09:42:13;98993.56;;;0.74;100.00
21760;BME280;11041;50.854;20.580;2023-12-07T09:44:40;98987.91;;;0.76;100.00
21760;BME280;11041;50.854;20.580;2023-12-07T09:47:12;98977.41;;;0.79;100.00
21760;BME280;11041;50.854;20.580;2023-12-07T09:49:41;98983.91;;;0.78;100.00
21760;BME280;11041;50.854;20.580;2023-12-07T09:52:11;98983.16;;;0.83;100.00
21760;BME280;11041;50.854;20.580;2023-12-07T09:54:47;98985.38;;;0.86;100.00
21760;BME280;11041;50.854;20.580;2023-12-07T09:57:16;98991.38;;;0.88;100.00
21760;BME280;11041;50.854;20.580;2023-12-07T09:59:47;98988.66;;;0.88;99.61
21760;BME280;11041;50.854;20.580;2023-12-07T10:02:18;98983.81;;;0.90;99.87
21760;BME280;11041;50.854;20.580;2023-12-07T10:04:47;98986.59;;;0.95;99.86
21760;BME280;11041;50.854;20.580;2023-12-07T10:07:17;98983.41;;;0.98;99.65
21760;BME280;11041;50.854;20.580;2023-12-07T10:09:50;98986.44;;;1.02;99.93
21760;BME280;11041;50.854;20.580;2023-12-07T10:12:17;98982.44;;;1.04;99.94
21760;BME280;11041;50.854;20.580;2023-12-07T10:14:46;98972.09;;;1.01;99.05
21760;BME280;11041;50.854;20.580;2023-12-07T10:17:16;98973.72;;;1.02;99.18
21760;BME280;11041;50.854;20.580;2023-12-07T10:19:45;98972.09;;;1.01;99.15
21760;BME280;11041;50.854;20.580;2023-12-07T10:22:17;98968.81;;;0.99;99.07
21760;BME280;11041;50.854;20.580;2023-12-07T10:24:43;98980.16;;;0.96;98.34
21760;BME280;11041;50.854;20.580;2023-12-07T10:27:13;98979.00;;;0.92;98.43
21760;BME280;11041;50.854;20.580;2023-12-07T10:29:44;98972.44;;;0.88;98.43
21760;BME280;11041;50.854;20.580;2023-12-07T10:32:12;98970.72;;;0.82;98.10
21760;BME280;11041;50.854;20.580;2023-12-07T10:34:38;98977.41;;;0.79;98.92
21760;BME280;11041;50.854;20.580;2023-12-07T10:37:08;98973.66;;;0.80;99.53
21760;BME280;11041;50.854;20.580;2023-12-07T10:39:40;98968.75;;;0.77;99.42
21760;BME280;11041;50.854;20.580;2023-12-07T10:42:10;98976.88;;;0.77;99.50
21760;BME280;11041;50.854;20.580;2023-12-07T10:44:42;98982.59;;;0.81;99.64
21760;BME280;11041;50.854;20.580;2023-12-07T10:47:12;98981.84;;;0.85;99.92
21760;BME280;11041;50.854;20.580;2023-12-07T10:49:46;98986.03;;;0.93;99.75
21760;BME280;11041;50.854;20.580;2023-12-07T10:52:24;98988.00;;;0.98;99.26
21760;BME280;11041;50.854;20.580;2023-12-07T10:55:02;98990.47;;;0.99;98.59
21760;BME280;11041;50.854;20.580;2023-12-07T10:57:36;98992.03;;;0.95;98.15
21760;BME280;11041;50.854;20.580;2023-12-07T11:00:11;98989.00;;;0.92;97.70
21760;BME280;11041;50.854;20.580;2023-12-07T11:02:41;98983.97;;;0.83;97.18
21760;BME280;11041;50.854;20.580;2023-12-07T11:05:11;98982.59;;;0.81;97.82
21760;BME280;11041;50.854;20.580;2023-12-07T11:08:05;98986.09;;;0.81;98.03
21760;BME280;11041;50.854;20.580;2023-12-07T11:13:33;98978.06;;;0.87;98.62
21760;BME280;11041;50.854;20.580;2023-12-07T11:16:03;98984.63;;;0.91;98.67
21760;BME280;11041;50.854;20.580;2023-12-07T11:18:35;98984.97;;;0.94;98.88
21760;BME280;11041;50.854;20.580;2023-12-07T11:21:06;98990.69;;;0.98;98.37
21760;BME280;11041;50.854;20.580;2023-12-07T11:23:39;98988.56;;;1.00;98.21
21760;BME280;11041;50.854;20.580;2023-12-07T11:26:10;98983.50;;;1.03;98.55
21760;BME280;11041;50.854;20.580;2023-12-07T11:28:44;98981.34;;;1.05;98.42
21760;BME280;11041;50.854;20.580;2023-12-07T11:31:16;98979.78;;;1.10;98.73
21760;BME280;11041;50.854;20.580;2023-12-07T11:33:43;98984.97;;;1.11;98.38
21760;BME280;11041;50.854;20.580;2023-12-07T11:36:14;98988.25;;;1.13;98.18
21760;BME280;11041;50.854;20.580;2023-12-07T11:41:44;98985.53;;;1.13;98.34
21760;BME280;11041;50.854;20.580;2023-12-07T11:44:17;98981.75;;;1.14;98.15
21760;BME280;11041;50.854;20.580;2023-12-07T11:46:48;98980.69;;;1.15;98.28
21760;BME280;11041;50.854;20.580;2023-12-07T11:49:18;98982.06;;;1.18;98.45
21760;BME280;11041;50.854;20.580;2023-12-07T11:51:51;98982.66;;;1.20;98.54
21760;BME280;11041;50.854;20.580;2023-12-07T11:54:19;98981.59;;;1.21;98.35
21760;BME280;11041;50.854;20.580;2023-12-07T11:56:57;98978.63;;;1.22;98.50
21760;BME280;11041;50.854;20.580;2023-12-07T11:59:26;98978.38;;;1.24;98.23
21760;BME280;11041;50.854;20.580;2023-12-07T12:01:53;98979.19;;;1.24;98.02
21760;BME280;11041;50.854;20.580;2023-12-07T12:04:24;98980.00;;;1.25;98.09
21760;BME280;11041;50.854;20.580;2023-12-07T12:06:50;98974.94;;;1.28;98.53
21760;BME280;11041;50.854;20.580;2023-12-07T12:09:26;98978.72;;;1.27;98.31
21760;BME280;11041;50.854;20.580;2023-12-07T12:11:54;98978.22;;;1.31;97.88
21760;BME280;11041;50.854;20.580;2023-12-07T12:14:29;98987.97;;;1.32;98.30
21760;BME280;11041;50.854;20.580;2023-12-07T12:16:58;98988.78;;;1.32;98.37
21760;BME280;11041;50.854;20.580;2023-12-07T12:19:28;98978.78;;;1.33;98.21
21760;BME280;11041;50.854;20.580;2023-12-07T12:21:56;98976.09;;;1.33;97.74
21760;BME280;11041;50.854;20.580;2023-12-07T12:24:28;98975.50;;;1.31;97.59
21760;BME280;11041;50.854;20.580;2023-12-07T12:27:00;98977.41;;;1.30;98.14
21760;BME280;11041;50.854;20.580;2023-12-07T12:29:31;98980.34;;;1.28;98.19
21760;BME280;11041;50.854;20.580;2023-12-07T12:32:03;98978.44;;;1.29;97.49
21760;BME280;11041;50.854;20.580;2023-12-07T12:34:39;98982.47;;;1.26;98.55
21760;BME280;11041;50.854;20.580;2023-12-07T12:37:06;98982.25;;;1.28;98.01
21760;BME280;11041;50.854;20.580;2023-12-07T12:39:35;98982.72;;;1.25;97.39
21760;BME280;11041;50.854;20.580;2023-12-07T12:42:05;98980.78;;;1.20;97.63
21760;BME280;11041;50.854;20.580;2023-12-07T12:44:35;98991.03;;;1.18;98.21
21760;BME280;11041;50.854;20.580;2023-12-07T12:47:05;98988.56;;;1.17;98.42
21760;BME280;11041;50.854;20.580;2023-12-07T12:49:37;98981.53;;;1.16;98.49
21760;BME280;11041;50.854;20.580;2023-12-07T12:52:15;98979.88;;;1.15;98.38
21760;BME280;11041;50.854;20.580;2023-12-07T12:54:49;98984.47;;;1.14;98.45
21760;BME280;11041;50.854;20.580;2023-12-07T12:57:18;98984.97;;;1.11;98.92
21760;BME280;11041;50.854;20.580;2023-12-07T12:59:45;98987.34;;;1.08;98.44
21760;BME280;11041;50.854;20.580;2023-12-07T13:02:12;98987.59;;;1.06;99.11
21760;BME280;11041;50.854;20.580;2023-12-07T13:04:38;98997.59;;;1.05;98.96